createdAt,value
2022-10-02T00:00:05.108Z,25.38
2022-10-02T00:02:50.880Z,31.80
2022-10-02T00:05:29.186Z,28.50
2022-10-02T00:08:07.270Z,43.70
2022-10-02T00:13:12.221Z,29.42
2022-10-02T00:15:42.281Z,38.10
2022-10-02T00:18:20.151Z,24.23
2022-10-02T00:21:06.091Z,36.97
2022-10-02T00:23:46.210Z,32.72
2022-10-02T00:26:53.004Z,35.20
2022-10-02T00:29:41.379Z,31.30
2022-10-02T00:32:27.041Z,32.05
2022-10-02T00:35:19.660Z,26.83
2022-10-02T00:38:17.991Z,34.47
2022-10-02T00:41:11.259Z,34.42
2022-10-02T00:44:16.414Z,38.00
2022-10-02T00:46:49.722Z,28.75
2022-10-02T00:49:29.329Z,32.55
2022-10-02T00:52:22.557Z,34.63
2022-10-02T00:54:55.747Z,38.53
2022-10-02T00:57:47.720Z,38.40
2022-10-02T01:00:17.694Z,36.42
2022-10-02T01:03:23.832Z,32.47
2022-10-02T01:05:51.330Z,32.83
2022-10-02T01:08:19.652Z,40.78
2022-10-02T01:10:47.828Z,31.42
2022-10-02T01:13:15.735Z,26.92
2022-10-02T01:18:23.214Z,29.63
2022-10-02T01:20:54.478Z,27.13
2022-10-02T01:23:37.199Z,29.05
2022-10-02T01:26:05.015Z,29.25
2022-10-02T01:28:32.573Z,34.60
2022-10-02T01:31:07.514Z,31.38
2022-10-02T01:33:35.893Z,35.65
2022-10-02T01:36:04.052Z,29.38
2022-10-02T01:40:59.100Z,37.35
2022-10-02T01:43:36.037Z,32.30
2022-10-02T01:46:29.967Z,30.50
2022-10-02T01:49:19.291Z,30.58
2022-10-02T01:51:52.345Z,32.33
2022-10-02T01:54:38.792Z,31.52
2022-10-02T01:57:17.922Z,31.63
2022-10-02T02:00:00.400Z,24.92
2022-10-02T02:02:36.884Z,29.70
2022-10-02T02:05:38.753Z,40.22
2022-10-02T02:08:16.793Z,28.20
2022-10-02T02:13:49.627Z,30.42
2022-10-02T02:16:22.926Z,30.30
2022-10-02T02:19:08.266Z,30.40
2022-10-02T02:21:46.330Z,29.13
2022-10-02T02:26:58.387Z,28.98
2022-10-02T02:29:28.014Z,28.65
2022-10-02T02:31:58.098Z,30.98
2022-10-02T02:34:35.307Z,25.20
2022-10-02T02:37:07.071Z,27.63
2022-10-02T02:39:46.119Z,28.83
2022-10-02T02:42:17.915Z,22.58
2022-10-02T02:44:55.823Z,27.35
2022-10-02T02:47:32.888Z,23.67
2022-10-02T02:50:16.818Z,25.60
2022-10-02T02:52:47.652Z,21.92
2022-10-02T02:55:48.099Z,22.55
2022-10-02T02:58:22.429Z,26.13
2022-10-02T03:00:50.025Z,22.50
2022-10-02T03:03:17.767Z,23.77
2022-10-02T03:05:53.293Z,17.42
2022-10-02T03:08:33.738Z,23.13
2022-10-02T03:11:10.058Z,27.08
2022-10-02T03:13:53.100Z,26.55
2022-10-02T03:16:48.221Z,28.33
2022-10-02T03:19:33.632Z,25.95
2022-10-02T03:22:13.117Z,24.10
2022-10-02T03:24:52.395Z,27.50
2022-10-02T03:27:25.763Z,26.38
2022-10-02T03:30:14.510Z,22.48
2022-10-02T03:32:46.103Z,22.05
2022-10-02T03:35:15.063Z,22.42
2022-10-02T03:37:47.266Z,19.95
2022-10-02T03:40:14.779Z,21.02
2022-10-02T03:42:42.471Z,23.45
2022-10-02T03:45:10.190Z,24.50
2022-10-02T03:47:37.764Z,23.25
2022-10-02T03:50:05.672Z,18.40
2022-10-02T03:52:35.988Z,25.00
2022-10-02T03:55:13.130Z,21.90
2022-10-02T03:57:43.970Z,25.88
2022-10-02T04:00:30.040Z,21.75
2022-10-02T04:02:59.223Z,29.00
2022-10-02T04:05:36.878Z,20.90
2022-10-02T04:08:14.314Z,25.42
2022-10-02T04:10:47.264Z,24.60
2022-10-02T04:13:33.948Z,21.63
2022-10-02T04:16:14.417Z,18.92
2022-10-02T04:18:47.856Z,19.75
2022-10-02T04:21:47.105Z,20.35
2022-10-02T04:24:29.754Z,19.00
2022-10-02T04:27:18.296Z,20.23
2022-10-02T04:29:55.618Z,26.65
2022-10-02T04:32:30.384Z,22.33
2022-10-02T04:35:02.818Z,24.52
2022-10-02T04:37:52.307Z,21.30
2022-10-02T04:40:37.486Z,19.63
2022-10-02T04:43:12.140Z,19.70
2022-10-02T04:45:58.963Z,24.08
2022-10-02T04:48:48.394Z,17.98
2022-10-02T04:51:36.607Z,23.30
2022-10-02T04:54:34.989Z,22.75
2022-10-02T04:57:28.615Z,20.90
2022-10-02T04:59:59.028Z,22.60
2022-10-02T05:02:36.504Z,26.52
2022-10-02T05:05:25.407Z,26.95
2022-10-02T05:08:04.874Z,25.02
2022-10-02T05:10:45.990Z,27.58
2022-10-02T05:13:57.870Z,23.48
2022-10-02T05:17:02.639Z,20.85
2022-10-02T05:19:49.785Z,19.20
2022-10-02T05:22:49.203Z,22.23
2022-10-02T05:25:58.774Z,23.00
2022-10-02T05:28:43.201Z,20.50
2022-10-02T05:31:38.012Z,19.13
2022-10-02T05:34:27.411Z,21.13
2022-10-02T05:37:35.869Z,20.48
2022-10-02T05:40:30.456Z,27.77
2022-10-02T05:43:32.989Z,21.33
2022-10-02T05:46:14.403Z,19.85
2022-10-02T05:48:49.103Z,21.60
2022-10-02T05:51:32.552Z,21.58
2022-10-02T05:54:08.993Z,20.75
2022-10-02T05:56:43.082Z,22.45
2022-10-02T05:59:40.554Z,21.38
2022-10-02T06:02:38.870Z,18.17
2022-10-02T06:05:22.948Z,21.33
2022-10-02T06:07:59.669Z,24.77
2022-10-02T06:10:32.022Z,22.95
2022-10-02T06:13:20.192Z,30.15
2022-10-02T06:16:12.223Z,25.38
2022-10-02T06:18:43.754Z,22.80
2022-10-02T06:21:37.196Z,21.80
2022-10-02T06:24:12.466Z,23.20
2022-10-02T06:26:39.988Z,22.05
2022-10-02T06:29:19.276Z,24.92
2022-10-02T06:32:08.905Z,22.92
2022-10-02T06:34:36.403Z,27.35
2022-10-02T06:37:11.607Z,22.90
2022-10-02T06:40:14.183Z,28.63
2022-10-02T06:42:52.760Z,23.23
2022-10-02T06:45:28.230Z,19.10
2022-10-02T06:48:02.039Z,17.13
2022-10-02T06:50:50.099Z,20.13
2022-10-02T06:53:36.197Z,18.00
2022-10-02T06:56:27.439Z,24.05
2022-10-02T06:59:22.221Z,25.88
2022-10-02T07:02:01.252Z,23.92
2022-10-02T07:04:42.828Z,22.77
2022-10-02T07:07:31.873Z,27.38
2022-10-02T07:10:29.415Z,26.80
2022-10-02T07:13:35.872Z,22.90
2022-10-02T07:16:14.473Z,26.10
2022-10-02T07:19:03.315Z,21.80
2022-10-02T07:21:47.395Z,25.83
2022-10-02T07:24:37.152Z,26.02
2022-10-02T07:27:26.262Z,23.52
2022-10-02T07:30:09.732Z,24.77
2022-10-02T07:32:52.253Z,21.95
2022-10-02T07:36:21.220Z,25.05
2022-10-02T07:39:01.914Z,25.00
2022-10-02T07:42:04.501Z,25.85
2022-10-02T07:45:07.673Z,29.02
2022-10-02T07:48:21.030Z,25.70
2022-10-02T07:51:34.949Z,22.58
2022-10-02T07:54:41.203Z,28.00
2022-10-02T07:57:23.591Z,23.90
2022-10-02T07:59:53.065Z,25.83
2022-10-02T08:02:43.193Z,31.15
2022-10-02T08:05:34.183Z,33.95
2022-10-02T08:08:23.254Z,28.73
2022-10-02T08:11:03.556Z,27.98
2022-10-02T08:13:47.078Z,20.65
2022-10-02T08:16:23.205Z,27.33
2022-10-02T08:18:58.784Z,27.60
2022-10-02T08:21:26.812Z,23.70
2022-10-02T08:24:04.089Z,20.00
2022-10-02T08:26:42.545Z,21.83
2022-10-02T08:29:12.309Z,26.05
2022-10-02T08:31:39.934Z,25.52
2022-10-02T08:34:18.501Z,27.77
2022-10-02T08:36:59.534Z,24.27
2022-10-02T08:39:36.978Z,30.30
2022-10-02T08:42:34.509Z,31.02
2022-10-02T08:47:51.132Z,21.60
2022-10-02T08:50:45.927Z,23.65
2022-10-02T08:53:33.028Z,22.25
2022-10-02T08:56:25.087Z,30.53
2022-10-02T08:59:32.311Z,20.63
2022-10-02T09:02:21.487Z,18.63
2022-10-02T09:05:04.874Z,31.40
2022-10-02T09:07:47.676Z,27.10
2022-10-02T09:10:45.914Z,22.05
2022-10-02T09:13:35.230Z,25.08
2022-10-02T09:16:38.210Z,26.92
2022-10-02T09:19:23.493Z,26.40
2022-10-02T09:21:59.914Z,23.02
2022-10-02T09:25:07.947Z,28.88
2022-10-02T09:27:56.515Z,19.10
2022-10-02T09:30:55.139Z,24.35
2022-10-02T09:33:44.227Z,24.92
2022-10-02T09:36:25.139Z,20.70
2022-10-02T09:39:18.721Z,16.00
2022-10-02T09:42:14.891Z,25.77
2022-10-02T09:45:22.037Z,22.77
2022-10-02T09:48:10.122Z,18.58
2022-10-02T09:51:10.452Z,18.55
2022-10-02T09:53:37.940Z,18.50
2022-10-02T09:56:53.386Z,18.25
2022-10-02T09:59:39.888Z,21.40
2022-10-02T10:02:38.023Z,21.92
2022-10-02T10:05:22.392Z,17.40
2022-10-02T10:07:58.456Z,21.83
2022-10-02T10:10:47.651Z,19.08
2022-10-02T10:13:22.175Z,23.33
2022-10-02T10:15:57.499Z,21.58
2022-10-02T10:18:47.948Z,20.30
2022-10-02T10:21:53.424Z,22.80
2022-10-02T10:24:42.022Z,23.10
2022-10-02T10:27:47.367Z,19.60
2022-10-02T10:30:36.335Z,20.60
2022-10-02T10:33:19.119Z,23.95
2022-10-02T10:36:33.959Z,18.33
2022-10-02T10:39:31.789Z,19.33
2022-10-02T10:47:42.194Z,18.30
2022-10-02T10:50:38.750Z,19.60
2022-10-02T10:53:13.706Z,17.73
2022-10-02T10:56:19.341Z,22.23
2022-10-02T10:59:06.435Z,17.60
2022-10-02T11:02:00.633Z,20.23
2022-10-02T11:04:50.232Z,20.92
2022-10-02T11:07:50.457Z,14.68
2022-10-02T11:10:34.025Z,19.52
2022-10-02T11:13:05.655Z,17.98
2022-10-02T11:16:13.463Z,18.25
2022-10-02T11:21:31.221Z,16.52
2022-10-02T11:24:01.639Z,15.52
2022-10-02T11:26:39.756Z,21.20
2022-10-02T11:32:54.175Z,19.98
2022-10-02T11:35:45.033Z,15.18
2022-10-02T11:38:38.649Z,14.75
2022-10-02T11:41:07.596Z,16.73
2022-10-02T11:44:04.830Z,13.68
2022-10-02T11:47:29.843Z,22.60
2022-10-02T11:50:10.289Z,16.83
2022-10-02T11:53:16.085Z,19.05
2022-10-02T11:56:08.810Z,15.23
2022-10-02T11:59:04.005Z,17.90
2022-10-02T12:02:05.399Z,13.98
2022-10-02T12:04:32.958Z,17.42
2022-10-02T12:07:17.237Z,13.07
2022-10-02T12:10:00.649Z,14.32
2022-10-02T12:12:37.569Z,17.48
2022-10-02T12:15:22.847Z,13.80
2022-10-02T12:18:19.475Z,13.05
2022-10-02T12:21:18.351Z,14.20
2022-10-02T12:24:30.603Z,12.70
2022-10-02T12:27:02.602Z,14.65
2022-10-02T12:29:50.898Z,17.15
2022-10-02T12:32:38.870Z,16.77
2022-10-02T12:35:21.003Z,13.35
2022-10-02T12:38:16.294Z,19.35
2022-10-02T12:40:58.938Z,16.42
2022-10-02T12:43:29.168Z,14.77
2022-10-02T12:46:25.011Z,15.95
2022-10-02T12:49:01.238Z,15.93
2022-10-02T12:52:00.910Z,14.23
2022-10-02T12:55:09.110Z,13.63
2022-10-02T12:57:56.852Z,12.70
2022-10-02T13:00:31.046Z,16.55
2022-10-02T13:03:21.118Z,18.33
2022-10-02T13:06:34.084Z,14.32
2022-10-02T13:09:04.224Z,12.10
2022-10-02T13:11:55.972Z,16.67
2022-10-02T13:14:29.616Z,13.57
2022-10-02T13:17:14.160Z,14.93
2022-10-02T13:20:20.371Z,17.55
2022-10-02T13:23:06.358Z,14.93
2022-10-02T13:25:44.718Z,13.45
2022-10-02T13:28:36.395Z,14.90
2022-10-02T13:31:13.046Z,11.70
2022-10-02T13:34:06.863Z,13.23
2022-10-02T13:36:56.281Z,14.52
2022-10-02T13:40:02.332Z,12.98
2022-10-02T13:42:39.002Z,12.25
2022-10-02T13:45:15.903Z,15.98
2022-10-02T13:47:47.331Z,16.02
2022-10-02T13:50:35.735Z,13.30
2022-10-02T13:53:31.100Z,14.57
2022-10-02T13:56:17.516Z,12.63
2022-10-02T13:59:06.509Z,12.55
2022-10-02T14:01:55.710Z,8.77
2022-10-02T14:04:50.796Z,14.70
2022-10-02T14:07:32.581Z,12.50
2022-10-02T14:10:22.189Z,10.02
2022-10-02T14:12:52.532Z,10.25
2022-10-02T14:15:56.847Z,12.13
2022-10-02T14:18:42.214Z,12.60
2022-10-02T14:21:21.174Z,15.82
2022-10-02T14:24:00.705Z,13.82
2022-10-02T14:26:49.183Z,15.15
2022-10-02T14:29:31.443Z,16.13
2022-10-02T14:32:28.216Z,10.77
2022-10-02T14:35:16.841Z,15.83
2022-10-02T14:38:13.798Z,18.08
2022-10-02T14:40:54.176Z,16.60
2022-10-02T14:43:42.110Z,14.25
2022-10-02T14:46:29.085Z,15.05
2022-10-02T14:49:30.034Z,13.97
2022-10-02T14:52:14.775Z,13.15
2022-10-02T14:54:51.061Z,11.27
2022-10-02T14:57:59.681Z,21.52
2022-10-02T15:00:48.160Z,14.68
2022-10-02T15:03:47.132Z,11.48
2022-10-02T15:06:17.323Z,13.52
2022-10-02T15:08:57.085Z,14.90
2022-10-02T15:11:53.152Z,14.38
2022-10-02T15:15:00.104Z,13.30
2022-10-02T15:18:09.001Z,13.77
2022-10-02T15:21:00.616Z,12.48
2022-10-02T15:23:45.134Z,14.75
2022-10-02T15:26:33.838Z,12.98
2022-10-02T15:29:22.315Z,11.73
2022-10-02T15:32:17.552Z,13.75
2022-10-02T15:35:09.585Z,11.65
2022-10-02T15:37:55.319Z,10.95
2022-10-02T15:41:00.992Z,13.35
2022-10-02T15:43:49.391Z,7.43
2022-10-02T15:46:28.999Z,18.95
2022-10-02T15:49:13.771Z,13.35
2022-10-02T15:52:22.990Z,18.17
2022-10-02T15:55:19.998Z,14.30
2022-10-02T15:57:51.316Z,16.77
2022-10-02T16:00:20.658Z,14.13
2022-10-02T16:03:01.555Z,15.57
2022-10-02T16:05:44.241Z,12.15
2022-10-02T16:08:45.403Z,17.25
2022-10-02T16:11:37.659Z,11.73
2022-10-02T16:14:36.265Z,12.68
2022-10-02T16:17:09.959Z,9.30
2022-10-02T16:19:55.638Z,12.25
2022-10-02T16:22:29.154Z,10.60
2022-10-02T16:25:11.880Z,13.50
2022-10-02T16:27:48.013Z,14.82
2022-10-02T16:30:18.662Z,11.10
2022-10-02T16:32:55.107Z,12.18
2022-10-02T16:35:59.204Z,14.65
2022-10-02T16:38:52.331Z,17.10
2022-10-02T16:41:42.298Z,16.25
2022-10-02T16:44:34.675Z,12.63
2022-10-02T16:47:17.788Z,13.40
2022-10-02T16:50:12.196Z,13.45
2022-10-02T16:53:02.659Z,10.48
2022-10-02T16:55:46.994Z,16.60
2022-10-02T16:58:28.622Z,17.05
2022-10-02T17:00:59.282Z,16.70
2022-10-02T17:04:05.133Z,13.38
2022-10-02T17:06:41.293Z,17.38
2022-10-02T17:09:17.280Z,14.20
2022-10-02T17:11:58.111Z,10.85
2022-10-02T17:14:46.632Z,14.25
2022-10-02T17:17:42.074Z,15.35
2022-10-02T17:20:32.915Z,16.48
2022-10-02T17:23:18.543Z,17.95
2022-10-02T17:26:02.689Z,18.77
2022-10-02T17:28:45.236Z,11.95
2022-10-02T17:31:12.703Z,22.90
2022-10-02T17:33:52.624Z,17.10
2022-10-02T17:36:35.882Z,14.85
2022-10-02T17:39:10.824Z,19.67
2022-10-02T17:41:58.612Z,16.30
2022-10-02T17:44:33.943Z,20.17
2022-10-02T17:47:30.427Z,23.02
2022-10-02T17:50:19.186Z,19.40
2022-10-02T17:53:32.199Z,19.52
2022-10-02T17:56:40.183Z,15.57
2022-10-02T17:59:21.049Z,20.45
2022-10-02T18:02:30.640Z,18.23
2022-10-02T18:05:06.955Z,18.48
2022-10-02T18:07:58.594Z,20.70
2022-10-02T18:10:42.320Z,20.90
2022-10-02T18:13:25.944Z,26.70
2022-10-02T18:16:22.301Z,28.20
2022-10-02T18:19:02.956Z,24.08
2022-10-02T18:21:59.856Z,17.85
2022-10-02T18:24:56.491Z,22.23
2022-10-02T18:27:45.241Z,18.33
2022-10-02T18:30:22.733Z,16.45
2022-10-02T18:33:27.836Z,21.88
2022-10-02T18:36:01.334Z,16.88
2022-10-02T18:38:41.075Z,21.45
2022-10-02T18:41:36.580Z,17.67
2022-10-02T18:44:33.483Z,20.83
2022-10-02T18:47:16.132Z,26.08
2022-10-02T18:50:01.619Z,24.23
2022-10-02T18:52:51.094Z,23.10
2022-10-02T18:55:37.708Z,19.70
2022-10-02T18:58:31.625Z,19.02
2022-10-02T19:01:27.201Z,15.05
2022-10-02T19:04:22.803Z,20.63
2022-10-02T19:07:06.029Z,22.65
2022-10-02T19:09:33.751Z,19.15
2022-10-02T19:12:22.086Z,16.55
2022-10-02T19:14:55.787Z,19.88
2022-10-02T19:17:26.073Z,15.43
2022-10-02T19:19:54.407Z,16.83
2022-10-02T19:22:33.049Z,24.25
2022-10-02T19:25:20.377Z,18.88
2022-10-02T19:27:53.846Z,18.83
2022-10-02T19:30:26.286Z,20.27
2022-10-02T19:32:58.570Z,16.70
2022-10-02T19:35:34.519Z,19.80
2022-10-02T19:38:15.076Z,19.38
2022-10-02T19:40:42.859Z,20.77
2022-10-02T19:43:24.532Z,20.48
2022-10-02T19:45:57.041Z,24.27
2022-10-02T19:48:27.213Z,25.52
2022-10-02T19:51:01.027Z,18.88
2022-10-02T19:53:38.693Z,15.98
2022-10-02T19:56:24.451Z,21.83
2022-10-02T19:58:58.625Z,22.58
2022-10-02T20:01:42.495Z,23.20
2022-10-02T20:04:18.311Z,17.88
2022-10-02T20:06:52.921Z,22.15
2022-10-02T20:09:30.251Z,15.98
2022-10-02T20:12:21.970Z,19.98
2022-10-02T20:14:55.963Z,29.52
2022-10-02T20:17:23.557Z,22.25
2022-10-02T20:19:57.739Z,19.63
2022-10-02T20:22:31.195Z,16.55
2022-10-02T20:25:17.770Z,17.52
2022-10-02T20:27:59.404Z,26.48
2022-10-02T20:30:33.124Z,18.27
2022-10-02T20:33:13.037Z,20.33
2022-10-02T20:35:45.111Z,19.58
2022-10-02T20:38:28.533Z,18.10
2022-10-02T20:40:58.935Z,16.05
2022-10-02T20:43:32.809Z,20.38
2022-10-02T20:46:18.510Z,15.50
2022-10-02T20:49:08.436Z,20.65
2022-10-02T20:52:13.828Z,18.45
2022-10-02T20:55:07.462Z,20.33
2022-10-02T20:58:01.390Z,19.77
2022-10-02T21:00:55.809Z,17.27
2022-10-02T21:03:51.234Z,18.67
2022-10-02T21:06:51.654Z,17.48
2022-10-02T21:09:34.245Z,18.50
2022-10-02T21:12:07.680Z,25.85
2022-10-02T21:14:38.066Z,21.83
2022-10-02T21:17:31.582Z,17.33
2022-10-02T21:20:39.512Z,21.92
2022-10-02T21:23:52.112Z,25.77
2022-10-02T21:26:37.644Z,29.80
2022-10-02T21:29:27.265Z,24.50
2022-10-02T21:32:13.029Z,26.23
2022-10-02T21:34:58.786Z,23.98
2022-10-02T21:37:55.927Z,24.85
2022-10-02T21:40:52.303Z,20.73
2022-10-02T21:43:57.606Z,20.25
2022-10-02T21:47:10.325Z,25.30
2022-10-02T21:50:01.627Z,22.77
2022-10-02T21:53:02.283Z,23.90
2022-10-02T21:56:07.552Z,21.60
2022-10-02T21:58:43.987Z,24.70
2022-10-02T22:01:30.049Z,19.02
2022-10-02T22:04:22.954Z,23.15
2022-10-02T22:07:04.506Z,23.08
2022-10-02T22:09:44.612Z,24.42
2022-10-02T22:12:39.303Z,23.40
2022-10-02T22:15:23.718Z,19.00
2022-10-02T22:17:59.201Z,23.80
2022-10-02T22:20:55.162Z,22.05
2022-10-02T22:23:25.354Z,19.33
2022-10-02T22:26:16.267Z,25.27
2022-10-02T22:28:48.023Z,26.90
2022-10-02T22:31:44.760Z,20.25
2022-10-02T22:34:24.296Z,18.10
2022-10-02T22:37:25.623Z,29.45
2022-10-02T22:40:11.098Z,23.58
2022-10-02T22:42:44.832Z,20.40
2022-10-02T22:45:34.919Z,20.73
2022-10-02T22:48:23.986Z,21.25
2022-10-02T22:51:01.063Z,20.33
2022-10-02T22:54:13.349Z,17.45
2022-10-02T22:57:09.741Z,25.95
2022-10-02T22:59:57.007Z,23.27
2022-10-02T23:02:31.689Z,18.02
2022-10-02T23:05:19.003Z,24.08
2022-10-02T23:08:15.159Z,24.47
2022-10-02T23:11:16.774Z,23.55
2022-10-02T23:13:54.953Z,19.60
2022-10-02T23:17:04.777Z,27.23
2022-10-02T23:19:48.547Z,24.42
2022-10-02T23:22:31.324Z,20.13
2022-10-02T23:25:15.867Z,26.23
2022-10-02T23:27:47.326Z,22.92
2022-10-02T23:30:23.210Z,18.00
2022-10-02T23:32:57.444Z,23.20
2022-10-02T23:35:47.658Z,20.40
2022-10-02T23:38:46.818Z,19.52
2022-10-02T23:41:40.569Z,18.73
2022-10-02T23:44:17.285Z,22.42
2022-10-02T23:46:50.936Z,24.33
2022-10-02T23:49:22.212Z,19.52
2022-10-02T23:52:04.690Z,21.45
2022-10-02T23:54:40.872Z,19.40
2022-10-02T23:57:17.166Z,26.85
2022-10-02T23:59:59.283Z,19.10
